createdAt,value
2018-08-13T00:02:09.603Z,43.96
2018-08-13T00:05:34.048Z,42.23
2018-08-13T00:08:58.536Z,38.24
2018-08-13T00:12:23.027Z,37.23
2018-08-13T00:15:47.472Z,38.80
2018-08-13T00:19:11.859Z,36.80
2018-08-13T00:22:36.277Z,37.12
2018-08-13T00:26:00.699Z,36.49
2018-08-13T00:29:25.271Z,35.40
2018-08-13T00:32:49.724Z,35.58
2018-08-13T00:36:14.137Z,34.93
2018-08-13T00:39:38.524Z,35.54
2018-08-13T00:43:02.996Z,34.82
2018-08-13T00:49:50.880Z,34.25
2018-08-13T00:53:15.303Z,34.67
2018-08-13T00:56:39.714Z,35.35
2018-08-13T01:00:05.025Z,35.93
2018-08-13T01:03:29.443Z,35.50
2018-08-13T01:06:53.882Z,36.18
2018-08-13T01:10:21.973Z,35.22
2018-08-13T01:13:46.378Z,37.02
2018-08-13T01:17:10.877Z,36.34
2018-08-13T01:20:35.558Z,38.01
2018-08-13T01:23:59.949Z,37.15
2018-08-13T01:27:29.588Z,37.41
2018-08-13T01:30:54.062Z,39.62
2018-08-13T01:34:18.496Z,40.40
2018-08-13T01:37:42.951Z,42.50
2018-08-13T01:41:07.367Z,42.19
2018-08-13T01:44:31.783Z,43.07
2018-08-13T01:47:56.209Z,44.30
2018-08-13T01:51:20.664Z,45.46
2018-08-13T01:54:45.145Z,46.11
2018-08-13T01:58:09.583Z,45.58
2018-08-13T02:01:34.051Z,45.63
2018-08-13T02:04:58.462Z,45.15
2018-08-13T02:08:22.865Z,44.57
2018-08-13T02:11:47.308Z,44.02
2018-08-13T02:15:11.819Z,45.57
2018-08-13T02:18:36.237Z,44.14
2018-08-13T02:22:00.887Z,39.88
2018-08-13T02:25:25.312Z,38.98
2018-08-13T02:28:49.756Z,37.59
2018-08-13T02:32:14.204Z,37.29
2018-08-13T02:35:38.632Z,36.20
2018-08-13T02:39:03.165Z,36.91
2018-08-13T02:42:27.785Z,36.22
2018-08-13T02:45:52.249Z,35.52
2018-08-13T02:49:16.667Z,35.47
2018-08-13T02:52:41.314Z,35.20
2018-08-13T02:56:05.882Z,35.66
2018-08-13T02:59:30.316Z,34.99
2018-08-13T03:02:54.756Z,35.20
2018-08-13T03:06:19.212Z,36.03
2018-08-13T03:09:43.626Z,35.31
2018-08-13T03:13:08.126Z,37.14
2018-08-13T03:16:32.547Z,39.39
2018-08-13T03:19:57.519Z,38.80
2018-08-13T03:23:22.081Z,37.64
2018-08-13T03:26:46.560Z,37.59
2018-08-13T03:30:12.801Z,37.88
2018-08-13T03:33:37.398Z,38.58
2018-08-13T03:37:01.706Z,38.93
2018-08-13T03:40:26.162Z,39.69
2018-08-13T03:43:50.646Z,40.27
2018-08-13T03:47:15.176Z,41.01
2018-08-13T03:50:39.663Z,41.07
2018-08-13T03:54:04.148Z,41.27
2018-08-13T03:57:28.609Z,41.05
2018-08-13T04:00:53.104Z,40.94
2018-08-13T04:04:17.543Z,41.67
2018-08-13T04:07:41.995Z,41.77
2018-08-13T04:11:06.700Z,41.78
2018-08-13T04:14:31.230Z,43.45
2018-08-13T04:17:55.661Z,46.04
2018-08-13T04:21:20.110Z,49.61
2018-08-13T04:24:44.688Z,52.43
2018-08-13T04:28:09.083Z,58.68
2018-08-13T04:31:33.530Z,59.73
2018-08-13T04:34:58.184Z,65.81
2018-08-13T04:38:22.578Z,64.12
2018-08-13T04:41:46.965Z,64.70
2018-08-13T04:45:11.632Z,68.21
2018-08-13T04:48:36.076Z,70.77
2018-08-13T04:52:00.524Z,72.50
2018-08-13T04:55:24.954Z,73.23
2018-08-13T04:58:49.445Z,71.87
2018-08-13T05:02:13.924Z,73.20
2018-08-13T05:05:38.370Z,73.70
2018-08-13T05:09:06.695Z,73.81
2018-08-13T05:12:31.177Z,73.86
2018-08-13T05:15:55.625Z,75.23
2018-08-13T05:19:20.077Z,72.98
2018-08-13T05:22:44.532Z,74.42
2018-08-13T05:26:10.468Z,76.81
2018-08-13T05:29:34.960Z,75.67
2018-08-13T05:32:59.408Z,74.18
2018-08-13T05:36:23.829Z,75.48
2018-08-13T05:39:48.301Z,74.07
2018-08-13T05:43:12.761Z,74.15
2018-08-13T05:46:37.179Z,74.66
2018-08-13T05:50:01.607Z,77.04
2018-08-13T05:53:26.042Z,75.99
2018-08-13T05:56:50.460Z,77.22
2018-08-13T06:00:14.857Z,77.76
2018-08-13T06:03:39.302Z,77.43
2018-08-13T06:07:03.947Z,77.13
2018-08-13T06:10:28.353Z,78.01
2018-08-13T06:13:52.768Z,78.22
2018-08-13T06:17:17.206Z,78.48
2018-08-13T06:20:41.703Z,79.18
2018-08-13T06:24:06.256Z,78.78
2018-08-13T06:27:30.627Z,79.02
2018-08-13T06:30:55.090Z,78.90
2018-08-13T06:34:19.500Z,78.21
2018-08-13T06:37:44.622Z,78.46
2018-08-13T06:41:09.018Z,78.75
2018-08-13T06:44:33.448Z,77.98
2018-08-13T06:47:57.951Z,78.40
2018-08-13T06:51:22.444Z,77.43
2018-08-13T06:54:46.867Z,76.49
2018-08-13T06:58:11.338Z,75.76
2018-08-13T07:01:35.794Z,76.11
2018-08-13T07:05:00.227Z,75.05
2018-08-13T07:08:24.705Z,75.75
2018-08-13T07:11:49.128Z,76.11
2018-08-13T07:15:14.130Z,76.86
2018-08-13T07:18:38.627Z,75.02
2018-08-13T07:22:03.262Z,73.27
2018-08-13T07:25:27.643Z,74.52
2018-08-13T07:28:52.079Z,74.90
2018-08-13T07:32:16.516Z,74.27
2018-08-13T07:35:40.952Z,74.31
2018-08-13T07:39:08.907Z,72.59
2018-08-13T07:42:33.418Z,72.35
2018-08-13T07:45:57.870Z,70.32
2018-08-13T07:49:22.298Z,69.23
2018-08-13T07:52:46.705Z,68.89
2018-08-13T07:56:11.258Z,68.96
2018-08-13T07:59:35.745Z,68.85
2018-08-13T08:03:00.224Z,68.30
2018-08-13T08:06:24.686Z,68.32
2018-08-13T08:09:49.198Z,68.40
2018-08-13T08:13:13.720Z,68.88
2018-08-13T08:16:38.384Z,68.21
2018-08-13T08:20:03.425Z,66.98
2018-08-13T08:23:29.566Z,65.88
2018-08-13T08:26:54.092Z,66.03
2018-08-13T08:30:18.536Z,66.39
2018-08-13T08:33:42.996Z,66.29
2018-08-13T08:37:07.522Z,67.11
2018-08-13T08:40:32.089Z,67.15
2018-08-13T08:43:56.552Z,67.02
2018-08-13T08:47:21.032Z,67.16
2018-08-13T08:50:45.555Z,65.93
2018-08-13T08:54:11.393Z,64.77
2018-08-13T08:57:35.895Z,63.59
2018-08-13T09:01:00.383Z,62.25
2018-08-13T09:04:24.865Z,61.96
2018-08-13T09:07:49.459Z,59.76
2018-08-13T09:11:13.916Z,60.34
2018-08-13T09:14:38.369Z,58.47
2018-08-13T09:37:22.692Z,57.20
2018-08-13T09:40:47.131Z,57.22
2018-08-13T09:44:11.602Z,57.11
2018-08-13T09:47:36.248Z,56.78
2018-08-13T09:51:00.708Z,56.87
2018-08-13T09:54:25.180Z,54.93
2018-08-13T09:57:50.295Z,53.63
2018-08-13T10:01:14.659Z,54.67
2018-08-13T10:04:39.125Z,55.08
2018-08-13T10:08:03.622Z,55.56
2018-08-13T10:11:28.071Z,56.08
2018-08-13T10:14:52.561Z,55.64
2018-08-13T10:18:16.963Z,54.31
2018-08-13T10:21:41.344Z,51.98
2018-08-13T10:25:07.422Z,52.50
2018-08-13T10:28:31.880Z,52.93
2018-08-13T10:31:56.354Z,52.48
2018-08-13T10:35:20.759Z,51.18
2018-08-13T10:38:45.283Z,50.13
2018-08-13T10:42:09.775Z,51.78
2018-08-13T10:45:34.238Z,54.29
2018-08-13T10:48:58.702Z,60.23
2018-08-13T10:52:23.219Z,64.95
2018-08-13T10:55:47.625Z,68.52
2018-08-13T10:59:12.032Z,69.14
2018-08-13T11:02:36.466Z,68.82
2018-08-13T11:06:00.896Z,69.73
2018-08-13T11:09:25.327Z,72.30
2018-08-13T11:12:49.745Z,73.00
2018-08-13T11:16:14.242Z,75.24
2018-08-13T11:19:38.685Z,75.39
2018-08-13T11:23:03.167Z,76.58
2018-08-13T11:26:27.678Z,72.34
2018-08-13T11:29:52.177Z,72.73
2018-08-13T11:33:16.702Z,71.17
2018-08-13T11:36:41.173Z,72.21
2018-08-13T11:40:13.321Z,71.48
2018-08-13T11:43:37.792Z,70.62
2018-08-13T11:47:02.271Z,69.57
2018-08-13T11:50:26.814Z,66.41
2018-08-13T11:53:51.389Z,63.81
2018-08-13T11:57:15.853Z,58.97
2018-08-13T12:00:40.365Z,62.10
2018-08-13T12:04:04.875Z,63.70
2018-08-13T12:07:29.428Z,67.01
2018-08-13T12:10:53.985Z,68.88
2018-08-13T12:14:18.461Z,71.65
2018-08-13T12:17:43.277Z,73.57
2018-08-13T12:21:07.778Z,74.53
2018-08-13T12:24:32.323Z,74.40
2018-08-13T12:27:56.853Z,74.62
2018-08-13T12:31:21.384Z,74.25
2018-08-13T12:34:45.900Z,75.69
2018-08-13T12:38:10.504Z,75.94
2018-08-13T12:41:35.068Z,77.87
2018-08-13T12:44:59.544Z,76.62
2018-08-13T12:48:24.019Z,74.60
2018-08-13T12:51:48.505Z,68.10
2018-08-13T12:55:13.447Z,60.46
2018-08-13T12:58:37.947Z,56.65
2018-08-13T13:02:02.502Z,53.66
2018-08-13T13:05:26.985Z,53.14
2018-08-13T13:08:51.630Z,47.81
2018-08-13T13:12:16.072Z,42.65
2018-08-13T13:15:40.592Z,39.71
2018-08-13T13:19:05.130Z,38.85
2018-08-13T13:22:29.685Z,39.65
2018-08-13T13:25:54.382Z,39.80
2018-08-13T13:29:18.804Z,44.56
2018-08-13T13:32:43.581Z,50.13
2018-08-13T13:36:08.334Z,50.18
2018-08-13T13:39:32.882Z,51.27
2018-08-13T13:42:57.435Z,52.17
2018-08-13T13:46:22.000Z,54.16
2018-08-13T13:49:46.448Z,54.89
2018-08-13T13:53:10.887Z,56.54
2018-08-13T13:56:35.358Z,58.28
2018-08-13T13:59:59.823Z,67.63
2018-08-13T14:03:24.310Z,71.89
2018-08-13T14:06:48.748Z,73.56
2018-08-13T14:10:17.375Z,74.85
2018-08-13T14:13:41.864Z,74.58
2018-08-13T14:17:06.468Z,75.34
2018-08-13T14:20:30.978Z,75.81
2018-08-13T14:23:55.470Z,74.52
2018-08-13T14:27:19.948Z,75.66
2018-08-13T14:30:44.406Z,69.94
2018-08-13T14:34:08.869Z,72.69
2018-08-13T14:37:33.351Z,70.15
2018-08-13T14:40:57.788Z,72.76
2018-08-13T14:44:22.238Z,73.38
2018-08-13T14:47:48.133Z,71.71
2018-08-13T14:51:12.591Z,70.95
2018-08-13T14:54:36.995Z,69.65
2018-08-13T14:58:01.443Z,64.35
2018-08-13T15:01:25.952Z,64.05
2018-08-13T15:04:52.487Z,64.19
2018-08-13T15:08:16.981Z,64.70
2018-08-13T15:11:42.374Z,65.75
2018-08-13T15:15:09.834Z,65.77
2018-08-13T15:18:34.252Z,66.52
2018-08-13T15:21:58.715Z,67.05
2018-08-13T15:25:23.227Z,63.57
2018-08-13T15:28:47.670Z,64.70
2018-08-13T15:32:12.083Z,64.86
2018-08-13T15:35:36.544Z,65.39
2018-08-13T15:39:00.998Z,68.06
2018-08-13T15:42:25.478Z,69.72
2018-08-13T15:45:49.896Z,71.55
2018-08-13T15:49:14.331Z,73.09
2018-08-13T15:52:39.088Z,71.24
2018-08-13T15:56:03.500Z,70.51
2018-08-13T15:59:27.925Z,71.50
2018-08-13T16:02:52.546Z,69.81
2018-08-13T16:06:17.028Z,64.91
2018-08-13T16:09:41.776Z,58.29
2018-08-13T16:13:06.215Z,50.84
2018-08-13T16:16:30.648Z,48.77
2018-08-13T16:19:55.273Z,45.29
2018-08-13T16:23:19.745Z,47.22
2018-08-13T16:26:44.270Z,49.42
2018-08-13T16:30:26.244Z,49.79
2018-08-13T16:33:50.728Z,50.71
2018-08-13T16:37:15.177Z,50.05
2018-08-13T16:40:39.588Z,50.38
2018-08-13T16:44:04.103Z,47.63
2018-08-13T16:47:28.536Z,49.97
2018-08-13T16:50:53.006Z,52.71
2018-08-13T16:54:17.381Z,54.97
2018-08-13T16:57:42.595Z,55.52
2018-08-13T17:01:07.127Z,56.81
2018-08-13T17:04:31.529Z,57.26
2018-08-13T17:07:55.921Z,59.04
2018-08-13T17:11:20.383Z,57.25
2018-08-13T17:14:46.955Z,58.99
2018-08-13T17:18:11.605Z,59.55
2018-08-13T17:21:38.609Z,58.42
2018-08-13T17:25:04.124Z,59.18
2018-08-13T17:28:29.522Z,59.74
2018-08-13T17:31:55.227Z,60.86
2018-08-13T17:35:22.396Z,60.44
2018-08-13T17:38:46.981Z,62.05
2018-08-13T17:42:11.389Z,61.76
2018-08-13T17:45:35.848Z,61.90
2018-08-13T17:49:00.661Z,61.82
2018-08-13T17:52:25.124Z,63.03
2018-08-13T17:55:49.861Z,63.20
2018-08-13T17:59:17.079Z,65.06
2018-08-13T18:02:42.170Z,64.48
2018-08-13T18:06:07.316Z,64.30
2018-08-13T18:12:56.013Z,74.84
2018-08-13T18:16:21.490Z,77.58
2018-08-13T18:19:45.977Z,79.70
2018-08-13T18:23:10.530Z,80.44
2018-08-13T18:26:35.129Z,79.93
2018-08-13T18:30:00.977Z,79.92
2018-08-13T18:33:27.533Z,80.01
2018-08-13T18:36:52.077Z,80.60
2018-08-13T18:40:23.608Z,81.71
2018-08-13T18:43:48.045Z,81.42
2018-08-13T18:47:13.011Z,81.59
2018-08-13T18:50:37.557Z,81.66
2018-08-13T18:54:02.178Z,80.68
2018-08-13T18:57:26.712Z,81.21
2018-08-13T19:00:54.058Z,81.92
2018-08-13T19:04:18.580Z,82.80
2018-08-13T19:07:44.326Z,82.45
2018-08-13T19:11:09.732Z,82.66
2018-08-13T19:14:34.168Z,82.56
2018-08-13T19:17:58.648Z,82.38
2018-08-13T19:21:23.196Z,82.80
2018-08-13T19:24:47.712Z,81.84
2018-08-13T19:28:12.204Z,83.04
2018-08-13T19:31:36.651Z,81.55
2018-08-13T19:35:01.137Z,80.92
2018-08-13T19:38:25.559Z,81.24
2018-08-13T19:41:50.085Z,81.17
2018-08-13T19:45:15.570Z,81.72
2018-08-13T19:48:39.974Z,81.31
2018-08-13T19:52:04.503Z,81.87
2018-08-13T19:55:28.943Z,82.04
2018-08-13T19:58:53.358Z,82.02
2018-08-13T20:02:17.900Z,81.62
2018-08-13T20:05:42.714Z,81.13
2018-08-13T20:09:10.088Z,82.23
2018-08-13T20:12:34.558Z,81.27
2018-08-13T20:15:58.984Z,81.48
2018-08-13T20:19:23.467Z,80.77
2018-08-13T20:22:48.424Z,82.15
2018-08-13T20:26:12.888Z,81.83
2018-08-13T20:29:37.358Z,81.07
2018-08-13T20:33:02.140Z,80.99
2018-08-13T20:36:26.620Z,81.71
2018-08-13T20:40:08.368Z,82.29
2018-08-13T20:43:32.969Z,81.99
2018-08-13T20:46:57.827Z,80.94
2018-08-13T20:50:24.750Z,81.20
2018-08-13T20:53:49.235Z,81.23
2018-08-13T20:57:13.921Z,81.39
2018-08-13T21:00:38.421Z,80.72
2018-08-13T21:04:02.927Z,81.29
2018-08-13T21:07:27.471Z,81.52
2018-08-13T21:10:52.002Z,79.99
2018-08-13T21:14:16.416Z,80.05
2018-08-13T21:17:41.217Z,80.67
2018-08-13T21:21:05.827Z,81.07
2018-08-13T21:24:30.406Z,80.19
2018-08-13T21:27:55.076Z,79.76
2018-08-13T21:31:19.639Z,79.65
2018-08-13T21:34:44.212Z,80.09
2018-08-13T21:38:09.444Z,78.32
2018-08-13T21:41:33.968Z,79.00
2018-08-13T21:44:59.048Z,78.33
2018-08-13T21:48:23.560Z,78.62
2018-08-13T21:51:48.179Z,77.88
2018-08-13T21:55:12.928Z,77.85
2018-08-13T21:58:37.389Z,77.18
2018-08-13T22:02:01.975Z,77.90
2018-08-13T22:05:26.438Z,78.09
2018-08-13T22:08:50.927Z,77.56
2018-08-13T22:12:20.370Z,77.69
2018-08-13T22:15:44.915Z,77.56
2018-08-13T22:19:10.308Z,77.08
2018-08-13T22:22:34.749Z,77.07
2018-08-13T22:25:59.327Z,78.09
2018-08-13T22:29:23.816Z,77.65
2018-08-13T22:32:48.283Z,77.41
2018-08-13T22:36:12.927Z,77.16
2018-08-13T22:39:37.350Z,76.94
2018-08-13T22:43:02.036Z,76.52
2018-08-13T22:46:26.462Z,76.92
2018-08-13T22:49:50.921Z,77.91
2018-08-13T22:53:15.420Z,76.78
2018-08-13T22:56:39.916Z,76.45
2018-08-13T23:00:05.249Z,77.67
2018-08-13T23:03:29.721Z,77.37
2018-08-13T23:06:54.234Z,76.79
2018-08-13T23:10:20.520Z,77.64
2018-08-13T23:13:44.974Z,77.07
2018-08-13T23:17:09.429Z,76.91
2018-08-13T23:20:33.904Z,78.36
2018-08-13T23:23:58.516Z,78.88
2018-08-13T23:27:22.980Z,78.72
2018-08-13T23:30:47.479Z,78.58
2018-08-13T23:34:12.014Z,78.36
2018-08-13T23:37:36.509Z,78.36
2018-08-13T23:41:00.988Z,78.73
2018-08-13T23:44:25.501Z,78.63
2018-08-13T23:47:50.037Z,79.13
2018-08-13T23:51:14.526Z,79.18
2018-08-13T23:54:38.980Z,79.04
2018-08-13T23:58:04.611Z,79.55
